sensor_id;sensor_type;location;lat;lon;timestamp;temperature;humidity
30467;DHT22;17258;52.560;13.046;2022-12-16T00:02:41;-2.50;63.40
30467;DHT22;17258;52.560;13.046;2022-12-16T00:12:41;-2.60;63.40
30467;DHT22;17258;52.560;13.046;2022-12-16T00:22:42;-2.70;63.40
30467;DHT22;17258;52.560;13.046;2022-12-16T00:32:43;-2.70;63.40
30467;DHT22;17258;52.560;13.046;2022-12-16T00:42:43;-2.80;63.40
30467;DHT22;17258;52.560;13.046;2022-12-16T00:52:44;-2.80;63.40
30467;DHT22;17258;52.560;13.046;2022-12-16T01:02:47;-2.90;63.30
30467;DHT22;17258;52.560;13.046;2022-12-16T01:12:48;-2.90;63.40
30467;DHT22;17258;52.560;13.046;2022-12-16T01:22:49;-2.90;63.30
30467;DHT22;17258;52.560;13.046;2022-12-16T01:32:49;-3.00;63.30
30467;DHT22;17258;52.560;13.046;2022-12-16T01:42:50;-3.00;63.30
30467;DHT22;17258;52.560;13.046;2022-12-16T01:52:55;-3.10;63.20
30467;DHT22;17258;52.560;13.046;2022-12-16T02:02:57;-3.20;63.20
30467;DHT22;17258;52.560;13.046;2022-12-16T02:23:59;-3.30;63.10
30467;DHT22;17258;52.560;13.046;2022-12-16T02:55:12;-3.40;63.20
30467;DHT22;17258;52.560;13.046;2022-12-16T03:05:32;-3.50;63.20
30467;DHT22;17258;52.560;13.046;2022-12-16T03:15:34;-3.50;63.20
30467;DHT22;17258;52.560;13.046;2022-12-16T03:25:37;-3.50;63.20
30467;DHT22;17258;52.560;13.046;2022-12-16T03:36:12;-3.60;63.10
30467;DHT22;17258;52.560;13.046;2022-12-16T03:46:19;-3.70;62.90
30467;DHT22;17258;52.560;13.046;2022-12-16T03:56:20;-3.70;63.00
30467;DHT22;17258;52.560;13.046;2022-12-16T04:06:20;-3.70;63.00
30467;DHT22;17258;52.560;13.046;2022-12-16T04:16:22;-3.80;63.00
30467;DHT22;17258;52.560;13.046;2022-12-16T04:26:42;-3.80;63.00
30467;DHT22;17258;52.560;13.046;2022-12-16T04:37:01;-3.90;63.10
30467;DHT22;17258;52.560;13.046;2022-12-16T04:47:20;-3.90;63.10
30467;DHT22;17258;52.560;13.046;2022-12-16T04:57:40;-3.90;63.10
30467;DHT22;17258;52.560;13.046;2022-12-16T05:07:59;-4.00;63.00
30467;DHT22;17258;52.560;13.046;2022-12-16T05:18:18;-4.00;63.00
30467;DHT22;17258;52.560;13.046;2022-12-16T05:28:37;-4.00;63.00
30467;DHT22;17258;52.560;13.046;2022-12-16T05:38:56;-4.10;62.90
30467;DHT22;17258;52.560;13.046;2022-12-16T05:49:15;-4.10;62.80
30467;DHT22;17258;52.560;13.046;2022-12-16T05:59:35;-4.20;62.80
30467;DHT22;17258;52.560;13.046;2022-12-16T06:09:54;-4.20;62.90
30467;DHT22;17258;52.560;13.046;2022-12-16T06:20:13;-4.30;62.80
30467;DHT22;17258;52.560;13.046;2022-12-16T06:30:32;-4.30;62.80
30467;DHT22;17258;52.560;13.046;2022-12-16T06:40:51;-4.40;62.80
30467;DHT22;17258;52.560;13.046;2022-12-16T06:51:11;-4.40;62.80
30467;DHT22;17258;52.560;13.046;2022-12-16T07:01:30;-4.40;62.80
30467;DHT22;17258;52.560;13.046;2022-12-16T07:11:49;-4.50;62.70
30467;DHT22;17258;52.560;13.046;2022-12-16T07:22:08;-4.60;62.60
30467;DHT22;17258;52.560;13.046;2022-12-16T07:32:28;-4.60;62.70
30467;DHT22;17258;52.560;13.046;2022-12-16T07:42:47;-4.60;62.80
30467;DHT22;17258;52.560;13.046;2022-12-16T07:53:07;-4.60;62.80
30467;DHT22;17258;52.560;13.046;2022-12-16T08:03:26;-4.60;62.90
30467;DHT22;17258;52.560;13.046;2022-12-16T08:13:45;-4.60;62.90
30467;DHT22;17258;52.560;13.046;2022-12-16T08:24:05;-4.60;63.00
30467;DHT22;17258;52.560;13.046;2022-12-16T08:34:24;-4.50;63.20
30467;DHT22;17258;52.560;13.046;2022-12-16T08:44:43;-4.40;63.60
30467;DHT22;17258;52.560;13.046;2022-12-16T08:55:02;-4.10;64.00
30467;DHT22;17258;52.560;13.046;2022-12-16T09:05:22;-3.80;64.40
30467;DHT22;17258;52.560;13.046;2022-12-16T09:15:41;-3.50;64.70
30467;DHT22;17258;52.560;13.046;2022-12-16T09:26:01;-3.00;65.00
30467;DHT22;17258;52.560;13.046;2022-12-16T09:36:20;-2.60;65.10
30467;DHT22;17258;52.560;13.046;2022-12-16T09:47:02;-2.20;65.20
30467;DHT22;17258;52.560;13.046;2022-12-16T09:57:25;-1.80;65.40
30467;DHT22;17258;52.560;13.046;2022-12-16T10:07:56;-1.40;65.40
30467;DHT22;17258;52.560;13.046;2022-12-16T10:29:14;-0.60;65.50
30467;DHT22;17258;52.560;13.046;2022-12-16T10:39:40;-0.20;65.60
30467;DHT22;17258;52.560;13.046;2022-12-16T10:50:02;0.10;65.60
30467;DHT22;17258;52.560;13.046;2022-12-16T11:00:44;0.50;65.70
30467;DHT22;17258;52.560;13.046;2022-12-16T11:11:12;0.70;65.70
30467;DHT22;17258;52.560;13.046;2022-12-16T11:21:36;1.00;65.70
30467;DHT22;17258;52.560;13.046;2022-12-16T11:32:41;1.30;65.70
30467;DHT22;17258;52.560;13.046;2022-12-16T11:42:43;1.60;65.60
30467;DHT22;17258;52.560;13.046;2022-12-16T11:53:04;1.80;65.50
30467;DHT22;17258;52.560;13.046;2022-12-16T12:03:42;2.00;65.40
30467;DHT22;17258;52.560;13.046;2022-12-16T12:45:46;2.60;65.40
30467;DHT22;17258;52.560;13.046;2022-12-16T12:56:36;2.70;65.30
30467;DHT22;17258;52.560;13.046;2022-12-16T13:07:06;2.90;65.30
30467;DHT22;17258;52.560;13.046;2022-12-16T13:17:25;2.90;65.30
30467;DHT22;17258;52.560;13.046;2022-12-16T13:27:55;3.00;65.30
30467;DHT22;17258;52.560;13.046;2022-12-16T13:48:40;3.20;65.20
30467;DHT22;17258;52.560;13.046;2022-12-16T13:59:04;3.20;65.10
30467;DHT22;17258;52.560;13.046;2022-12-16T14:09:40;3.20;65.00
30467;DHT22;17258;52.560;13.046;2022-12-16T14:20:14;3.20;64.90
30467;DHT22;17258;52.560;13.046;2022-12-16T14:31:04;3.20;65.00
30467;DHT22;17258;52.560;13.046;2022-12-16T14:41:24;3.20;65.60
30467;DHT22;17258;52.560;13.046;2022-12-16T14:51:45;3.00;65.10
30467;DHT22;17258;52.560;13.046;2022-12-16T15:12:49;3.20;65.00
30467;DHT22;17258;52.560;13.046;2022-12-16T15:23:23;3.10;64.90
30467;DHT22;17258;52.560;13.046;2022-12-16T15:33:49;3.10;64.80
30467;DHT22;17258;52.560;13.046;2022-12-16T15:44:28;3.00;64.90
30467;DHT22;17258;52.560;13.046;2022-12-16T15:54:51;3.00;64.90
30467;DHT22;17258;52.560;13.046;2022-12-16T16:05:18;3.00;64.80
30467;DHT22;17258;52.560;13.046;2022-12-16T16:15:39;3.00;64.90
30467;DHT22;17258;52.560;13.046;2022-12-16T16:25:58;3.00;64.90
30467;DHT22;17258;52.560;13.046;2022-12-16T16:36:17;2.90;64.90
30467;DHT22;17258;52.560;13.046;2022-12-16T16:46:38;2.90;64.80
30467;DHT22;17258;52.560;13.046;2022-12-16T16:57:00;2.80;64.80
30467;DHT22;17258;52.560;13.046;2022-12-16T17:07:19;2.80;64.80
30467;DHT22;17258;52.560;13.046;2022-12-16T17:17:38;2.80;64.90
30467;DHT22;17258;52.560;13.046;2022-12-16T17:27:58;2.80;64.90
30467;DHT22;17258;52.560;13.046;2022-12-16T17:38:17;2.80;65.00
30467;DHT22;17258;52.560;13.046;2022-12-16T17:48:37;2.80;65.00
30467;DHT22;17258;52.560;13.046;2022-12-16T17:58:56;2.80;65.00
30467;DHT22;17258;52.560;13.046;2022-12-16T18:09:22;2.80;65.00
30467;DHT22;17258;52.560;13.046;2022-12-16T18:19:42;2.80;65.00
30467;DHT22;17258;52.560;13.046;2022-12-16T18:30:02;2.80;65.00
30467;DHT22;17258;52.560;13.046;2022-12-16T18:40:21;2.80;65.00
30467;DHT22;17258;52.560;13.046;2022-12-16T18:50:41;2.80;65.00
30467;DHT22;17258;52.560;13.046;2022-12-16T19:01:06;2.80;65.10
30467;DHT22;17258;52.560;13.046;2022-12-16T19:11:27;2.80;65.10
30467;DHT22;17258;52.560;13.046;2022-12-16T19:21:46;2.80;65.10
30467;DHT22;17258;52.560;13.046;2022-12-16T19:32:05;2.80;65.10
30467;DHT22;17258;52.560;13.046;2022-12-16T19:42:24;2.80;65.10
30467;DHT22;17258;52.560;13.046;2022-12-16T19:52:44;2.80;65.10
30467;DHT22;17258;52.560;13.046;2022-12-16T20:03:03;2.80;65.20
30467;DHT22;17258;52.560;13.046;2022-12-16T20:13:22;2.80;65.20
30467;DHT22;17258;52.560;13.046;2022-12-16T20:23:41;2.90;65.30
30467;DHT22;17258;52.560;13.046;2022-12-16T20:34:00;2.90;65.20
30467;DHT22;17258;52.560;13.046;2022-12-16T20:44:19;2.90;65.30
30467;DHT22;17258;52.560;13.046;2022-12-16T20:54:39;2.90;65.20
30467;DHT22;17258;52.560;13.046;2022-12-16T21:04:58;3.00;65.30
30467;DHT22;17258;52.560;13.046;2022-12-16T21:15:18;3.00;65.30
30467;DHT22;17258;52.560;13.046;2022-12-16T21:25:37;3.00;65.40
30467;DHT22;17258;52.560;13.046;2022-12-16T21:35:56;3.10;65.30
30467;DHT22;17258;52.560;13.046;2022-12-16T21:46:15;3.00;65.30
30467;DHT22;17258;52.560;13.046;2022-12-16T21:56:51;3.10;65.40
30467;DHT22;17258;52.560;13.046;2022-12-16T22:07:11;3.10;65.40
30467;DHT22;17258;52.560;13.046;2022-12-16T22:17:30;3.10;65.40
30467;DHT22;17258;52.560;13.046;2022-12-16T22:27:51;3.20;65.50
30467;DHT22;17258;52.560;13.046;2022-12-16T22:38:31;3.20;65.50
30467;DHT22;17258;52.560;13.046;2022-12-16T22:48:50;3.30;65.60
30467;DHT22;17258;52.560;13.046;2022-12-16T22:59:10;3.30;65.50
30467;DHT22;17258;52.560;13.046;2022-12-16T23:09:29;3.30;65.50
30467;DHT22;17258;52.560;13.046;2022-12-16T23:19:48;3.30;65.50
30467;DHT22;17258;52.560;13.046;2022-12-16T23:30:08;3.40;65.50
30467;DHT22;17258;52.560;13.046;2022-12-16T23:40:28;3.40;65.60
30467;DHT22;17258;52.560;13.046;2022-12-16T23:50:47;3.40;65.50
